Time;durP1;ratioP1;P1;durP2;ratioP2;P2;SDS_P1;SDS_P2;PMS_P1;PMS_P2;Temp;Humidity;BMP_temperature;BMP_pressure;BME280_temperature;BME280_humidity;BME280_pressure;Samples;Min_cycle;Max_cycle;Signal;HPM_P1;HPM_P2
2023/10/29 00:00:12;;;;;;;19.60;17.30;;;10.70;99.90;;;;;;5058201;28;20044;-87
2023/10/29 00:02:38;;;;;;;16.83;14.77;;;10.70;99.90;;;;;;5059985;28;20475;-88
2023/10/29 00:05:04;;;;;;;20.50;18.23;;;10.70;99.90;;;;;;5058489;28;20036;-88
2023/10/29 00:07:30;;;;;;;17.98;16.17;;;10.70;99.90;;;;;;5058259;28;20471;-91
2023/10/29 00:09:55;;;;;;;21.63;19.48;;;11.40;99.90;;;;;;5057365;28;20177;-91
2023/10/29 00:12:21;;;;;;;19.02;16.92;;;11.10;99.90;;;;;;5057815;28;20706;-91
2023/10/29 00:14:47;;;;;;;21.92;17.17;;;10.80;99.90;;;;;;5058260;28;20085;-90
2023/10/29 00:17:13;;;;;;;16.45;14.50;;;11.60;99.90;;;;;;5057995;28;20440;-91
2023/10/29 00:19:39;;;;;;;18.00;15.05;;;10.80;99.90;;;;;;5058081;28;20037;-91
2023/10/29 00:22:05;;;;;;;22.35;18.15;;;11.50;99.90;;;;;;5057986;28;20081;-91
2023/10/29 00:24:30;;;;;;;20.60;18.25;;;11.40;99.90;;;;;;5057355;28;20138;-90
2023/10/29 00:26:56;;;;;;;17.95;15.88;;;10.80;99.90;;;;;;5056511;28;20370;-90
2023/10/29 00:29:22;;;;;;;19.83;16.65;;;11.10;99.90;;;;;;5056875;28;20378;-90
2023/10/29 00:31:48;;;;;;;21.05;17.85;;;11.50;99.90;;;;;;5057457;28;20044;-90
2023/10/29 00:34:13;;;;;;;19.92;17.38;;;10.90;99.90;;;;;;5056889;28;20110;-90
2023/10/29 00:36:39;;;;;;;19.75;17.65;;;10.90;99.90;;;;;;5057660;28;20041;-91
2023/10/29 00:39:05;;;;;;;19.17;17.13;;;10.90;99.90;;;;;;5057433;28;20041;-90
2023/10/29 00:41:30;;;;;;;19.65;17.85;;;10.90;99.90;;;;;;5056828;28;20036;-90
2023/10/29 00:43:57;;;;;;;21.67;15.48;;;10.90;99.90;;;;;;5073709;28;20195;-90
2023/10/29 00:46:24;;;;;;;21.38;17.00;;;10.90;99.90;;;;;;5057465;28;20037;-90
2023/10/29 00:48:50;;;;;;;20.13;16.02;;;10.90;99.90;;;;;;5057068;28;20075;-90
2023/10/29 00:51:17;;;;;;;20.20;18.23;;;10.90;99.90;;;;;;5056919;28;20040;-91
2023/10/29 00:53:44;;;;;;;18.30;16.13;;;11.20;99.90;;;;;;5057497;28;20063;-90
2023/10/29 00:56:11;;;;;;;22.58;16.17;;;11.10;99.90;;;;;;5056741;28;20047;-91
2023/10/29 00:58:37;;;;;;;18.13;16.23;;;10.90;99.90;;;;;;5057394;28;20097;-90
2023/10/29 01:01:03;;;;;;;21.55;15.85;;;10.90;99.90;;;;;;5056830;28;20115;-90
2023/10/29 01:03:29;;;;;;;19.38;17.05;;;11.90;99.90;;;;;;5057115;28;20040;-91
2023/10/29 01:05:55;;;;;;;16.58;14.98;;;11.00;99.90;;;;;;5056637;28;20339;-91
2023/10/29 01:08:22;;;;;;;16.13;14.45;;;11.60;99.90;;;;;;5036704;28;20090;-91
2023/10/29 01:10:47;;;;;;;15.85;14.32;;;11.00;99.90;;;;;;5037031;28;20546;-90
2023/10/29 01:13:13;;;;;;;19.00;15.25;;;11.60;99.90;;;;;;5037361;28;20041;-91
2023/10/29 01:15:39;;;;;;;23.02;15.82;;;11.00;99.90;;;;;;5036796;28;20144;-90
2023/10/29 01:18:06;;;;;;;14.52;12.60;;;11.00;99.90;;;;;;5036786;28;20045;-90
2023/10/29 01:20:32;;;;;;;16.65;13.80;;;11.10;99.90;;;;;;5037212;28;20044;-90
2023/10/29 01:22:58;;;;;;;19.65;15.80;;;12.00;99.90;;;;;;5036579;28;20056;-90
2023/10/29 01:25:23;;;;;;;17.15;15.32;;;11.60;99.90;;;;;;5036574;28;20037;-91
2023/10/29 01:27:49;;;;;;;16.88;14.68;;;11.70;99.90;;;;;;5036775;28;20083;-90
2023/10/29 01:30:15;;;;;;;17.88;15.38;;;11.50;99.90;;;;;;5038714;28;20487;-90
2023/10/29 01:32:41;;;;;;;18.77;14.52;;;12.00;99.90;;;;;;5056662;28;20035;-90
2023/10/29 01:35:07;;;;;;;19.25;17.20;;;11.90;99.90;;;;;;5056126;28;20052;-90
2023/10/29 01:37:32;;;;;;;17.80;15.60;;;11.60;99.90;;;;;;5068199;28;20045;-90
2023/10/29 01:39:58;;;;;;;19.00;17.00;;;12.20;99.90;;;;;;5035497;28;20672;-90
2023/10/29 01:42:24;;;;;;;19.67;15.77;;;11.90;99.90;;;;;;5036328;28;20047;-90
2023/10/29 01:44:49;;;;;;;18.77;16.92;;;11.40;99.90;;;;;;5035900;28;20114;-89
2023/10/29 01:47:15;;;;;;;19.30;17.25;;;11.30;99.90;;;;;;5036045;28;20250;-88
2023/10/29 01:49:41;;;;;;;20.50;18.33;;;11.40;99.90;;;;;;5036592;28;20123;-91
2023/10/29 01:52:07;;;;;;;19.17;16.83;;;11.40;99.90;;;;;;5036002;28;20033;-89
2023/10/29 01:54:32;;;;;;;19.48;17.17;;;11.40;99.90;;;;;;5036150;28;20047;-90
2023/10/29 01:56:58;;;;;;;22.13;15.70;;;11.50;99.90;;;;;;5035700;28;20545;-90
2023/10/29 01:59:24;;;;;;;16.05;12.57;;;11.50;99.90;;;;;;5036026;28;20048;-91
2023/10/29 02:01:50;;;;;;;20.60;16.52;;;11.50;99.90;;;;;;5050969;28;20047;-90
2023/10/29 02:04:16;;;;;;;19.15;14.68;;;11.90;99.90;;;;;;5055679;28;20033;-90
2023/10/29 02:06:41;;;;;;;15.65;13.52;;;12.50;99.90;;;;;;5055246;28;20174;-90
2023/10/29 02:09:09;;;;;;;13.27;10.30;;;11.80;99.90;;;;;;5056531;28;20036;-89
2023/10/29 02:11:38;;;;;;;16.02;14.30;;;11.70;99.90;;;;;;5072730;28;20052;-89
2023/10/29 02:14:07;;;;;;;21.90;15.45;;;12.40;99.90;;;;;;5055629;28;20036;-91
2023/10/29 02:16:33;;;;;;;17.80;13.95;;;12.40;99.90;;;;;;5056269;28;20382;-90
2023/10/29 02:18:59;;;;;;;20.80;13.57;;;11.80;99.90;;;;;;5054601;28;20032;-89
2023/10/29 02:21:25;;;;;;;14.93;12.30;;;12.20;99.90;;;;;;5055369;28;20045;-89
2023/10/29 02:23:52;;;;;;;15.65;12.98;;;11.70;99.90;;;;;;5055224;28;20076;-90
2023/10/29 02:26:18;;;;;;;17.05;15.45;;;12.50;99.90;;;;;;5055406;28;20040;-89
2023/10/29 02:28:44;;;;;;;18.83;15.43;;;11.20;99.90;;;;;;5055367;28;20471;-90
2023/10/29 02:31:17;;;;;;;14.80;13.40;;;12.60;99.90;;;;;;5055541;28;20066;-90
2023/10/29 02:33:43;;;;;;;13.65;12.27;;;12.00;99.90;;;;;;5055253;28;20045;-90
2023/10/29 02:36:12;;;;;;;18.27;13.82;;;11.80;99.90;;;;;;5055193;28;20063;-89
2023/10/29 02:38:38;;;;;;;16.38;12.55;;;12.20;99.90;;;;;;5054553;28;20047;-88
2023/10/29 02:41:07;;;;;;;15.25;13.18;;;12.30;99.90;;;;;;5055157;28;20040;-89
2023/10/29 02:43:42;;;;;;;12.93;10.40;;;11.60;99.90;;;;;;5054077;28;20036;-88
2023/10/29 02:46:07;;;;;;;15.15;11.73;;;12.30;99.90;;;;;;5053346;28;20122;-90
2023/10/29 02:48:33;;;;;;;12.25;8.88;;;12.30;99.90;;;;;;5053113;28;20701;-90
2023/10/29 02:50:59;;;;;;;10.57;8.32;;;11.60;99.90;;;;;;5070312;28;20162;-90
2023/10/29 02:53:25;;;;;;;11.05;7.53;;;11.60;99.90;;;;;;5055090;28;20100;-90
2023/10/29 02:55:50;;;;;;;12.63;8.63;;;11.60;99.90;;;;;;5071439;28;20029;-89
2023/10/29 02:58:16;;;;;;;15.27;9.57;;;12.30;99.90;;;;;;5071569;28;20052;-89
2023/10/29 03:00:42;;;;;;;10.40;8.10;;;12.10;99.90;;;;;;5071349;28;20454;-89
2023/10/29 03:03:07;;;;;;;12.50;11.30;;;11.90;99.90;;;;;;5072013;28;20048;-89
2023/10/29 03:05:34;;;;;;;9.52;7.53;;;12.20;99.90;;;;;;5054297;28;20036;-89
2023/10/29 03:08:00;;;;;;;10.70;9.52;;;12.60;99.90;;;;;;5071410;28;20092;-88
2023/10/29 03:10:26;;;;;;;7.32;5.80;;;12.20;99.90;;;;;;5071201;28;20508;-90
2023/10/29 03:12:52;;;;;;;9.85;6.20;;;12.00;99.90;;;;;;5071211;28;20037;-89
2023/10/29 03:15:18;;;;;;;11.43;9.00;;;11.70;99.90;;;;;;5071634;28;20071;-89
2023/10/29 03:17:43;;;;;;;12.38;11.18;;;11.70;99.90;;;;;;5071149;28;20037;-89
2023/10/29 03:20:11;;;;;;;14.45;9.52;;;11.60;99.90;;;;;;5054706;28;20045;-89
2023/10/29 03:22:37;;;;;;;13.43;7.18;;;11.60;99.90;;;;;;5070939;28;20556;-89
2023/10/29 03:25:03;;;;;;;11.05;9.63;;;12.10;99.90;;;;;;5071089;28;20087;-89
2023/10/29 03:27:28;;;;;;;12.35;9.18;;;11.70;99.90;;;;;;5069651;28;20504;-90
2023/10/29 03:29:54;;;;;;;7.75;6.72;;;11.70;99.90;;;;;;5071019;28;20394;-88
2023/10/29 03:32:20;;;;;;;11.40;7.25;;;11.90;99.90;;;;;;5075173;28;20033;-89
2023/10/29 03:34:45;;;;;;;8.02;5.85;;;12.20;99.90;;;;;;5074315;28;20040;-89
2023/10/29 03:37:11;;;;;;;8.65;6.43;;;11.70;99.90;;;;;;5075063;28;20040;-90
2023/10/29 03:39:36;;;;;;;12.68;6.70;;;11.70;99.90;;;;;;5074533;28;20032;-88
2023/10/29 03:42:02;;;;;;;9.55;7.15;;;12.20;99.90;;;;;;5074665;28;20094;-89
2023/10/29 03:44:28;;;;;;;16.27;7.07;;;11.70;99.90;;;;;;5075102;28;20042;-89
2023/10/29 03:46:54;;;;;;;11.35;8.70;;;11.70;99.90;;;;;;5074795;28;20465;-89
2023/10/29 03:49:19;;;;;;;12.38;7.20;;;12.10;99.90;;;;;;5074400;28;20127;-90
2023/10/29 03:51:46;;;;;;;10.00;6.63;;;11.90;99.90;;;;;;5074680;28;20067;-89
2023/10/29 03:54:12;;;;;;;10.70;9.73;;;12.00;99.90;;;;;;5074756;28;20036;-90
2023/10/29 03:56:38;;;;;;;12.70;8.40;;;11.90;99.90;;;;;;5074044;28;20041;-88
2023/10/29 03:59:03;;;;;;;13.18;10.23;;;12.50;99.90;;;;;;5060346;28;20037;-90
2023/10/29 04:01:29;;;;;;;9.85;8.07;;;11.70;99.90;;;;;;5057887;28;20040;-90
2023/10/29 04:03:55;;;;;;;8.38;7.47;;;11.80;99.90;;;;;;5057645;28;20043;-90
2023/10/29 04:06:21;;;;;;;7.10;6.40;;;11.80;99.90;;;;;;5058226;28;20062;-90
2023/10/29 04:08:47;;;;;;;8.82;7.47;;;12.60;99.90;;;;;;5057765;28;20043;-90
2023/10/29 04:11:13;;;;;;;8.65;7.43;;;11.80;99.90;;;;;;5058282;28;20036;-89
2023/10/29 04:13:39;;;;;;;12.82;6.80;;;11.90;99.90;;;;;;5057513;28;20078;-90
2023/10/29 04:16:05;;;;;;;11.30;7.40;;;12.30;99.90;;;;;;5057917;28;20044;-90
2023/10/29 04:18:31;;;;;;;14.40;10.50;;;11.90;99.90;;;;;;5057238;28;20406;-90
2023/10/29 04:21:06;;;;;;;7.85;5.75;;;12.00;99.90;;;;;;5057927;28;20041;-90
2023/10/29 04:23:32;;;;;;;7.72;6.90;;;11.70;99.90;;;;;;5057714;28;20041;-90
2023/10/29 04:25:58;;;;;;;9.65;7.97;;;12.50;99.90;;;;;;5058142;28;20032;-90
2023/10/29 04:28:26;;;;;;;11.32;6.47;;;12.60;99.90;;;;;;5057309;28;20040;-89
2023/10/29 04:30:53;;;;;;;8.65;7.50;;;12.10;99.90;;;;;;5057991;28;20040;-87
2023/10/29 04:33:19;;;;;;;8.95;5.65;;;12.40;99.90;;;;;;5057336;28;20525;-89
2023/10/29 04:35:45;;;;;;;11.18;10.00;;;12.10;99.90;;;;;;5057864;28;20083;-90
2023/10/29 04:38:10;;;;;;;13.38;8.32;;;12.20;99.90;;;;;;5058139;28;20051;-89
2023/10/29 04:40:36;;;;;;;9.60;8.55;;;12.10;99.90;;;;;;5058116;28;20043;-89
2023/10/29 04:43:02;;;;;;;9.15;7.82;;;12.20;99.90;;;;;;5057382;28;20040;-90
2023/10/29 04:45:28;;;;;;;9.73;6.00;;;12.20;99.90;;;;;;5058111;28;20166;-91
2023/10/29 04:47:53;;;;;;;8.50;6.22;;;12.20;99.90;;;;;;5057453;28;20123;-91
2023/10/29 04:50:19;;;;;;;12.30;6.13;;;12.20;99.90;;;;;;5058984;28;20095;-91
2023/10/29 04:52:44;;;;;;;10.40;5.82;;;12.10;99.90;;;;;;5057822;28;20441;-89
2023/10/29 04:55:10;;;;;;;11.40;6.18;;;12.20;99.90;;;;;;5058133;28;20033;-90
2023/10/29 04:57:36;;;;;;;11.77;5.45;;;12.10;99.90;;;;;;5057959;28;20040;-90
2023/10/29 05:00:04;;;;;;;9.50;4.88;;;12.50;99.90;;;;;;5074678;28;20048;-90
2023/10/29 05:02:29;;;;;;;8.57;5.72;;;12.10;99.90;;;;;;5074391;28;20055;-91
2023/10/29 05:04:55;;;;;;;10.05;6.05;;;12.10;99.90;;;;;;5074560;28;20041;-90
2023/10/29 05:07:21;;;;;;;7.75;6.70;;;12.10;99.90;;;;;;5073785;28;20132;-89
2023/10/29 05:09:47;;;;;;;6.80;4.97;;;12.00;99.90;;;;;;5074506;28;20492;-90
2023/10/29 05:12:12;;;;;;;7.15;4.15;;;12.00;99.90;;;;;;5074602;28;20048;-90
2023/10/29 05:14:38;;;;;;;5.88;5.03;;;12.50;99.90;;;;;;5074134;28;20506;-90
2023/10/29 05:17:04;;;;;;;7.97;6.60;;;11.90;99.90;;;;;;5073543;28;20071;-90
2023/10/29 05:19:30;;;;;;;8.85;4.93;;;11.80;99.90;;;;;;5057737;28;20086;-91
2023/10/29 05:21:56;;;;;;;19.83;12.23;;;12.30;99.90;;;;;;5057905;28;20076;-90
2023/10/29 05:24:22;;;;;;;13.30;8.02;;;12.00;99.90;;;;;;5056629;28;20453;-89
2023/10/29 05:26:48;;;;;;;7.75;5.15;;;11.80;99.90;;;;;;5056667;28;20040;-90
2023/10/29 05:29:13;;;;;;;12.18;5.30;;;11.70;99.90;;;;;;5056897;28;20036;-90
2023/10/29 05:31:39;;;;;;;9.20;6.63;;;11.40;99.90;;;;;;5059491;28;20097;-90
2023/10/29 05:34:05;;;;;;;6.80;6.13;;;11.60;99.90;;;;;;5059472;28;20064;-91
2023/10/29 05:36:31;;;;;;;6.88;5.68;;;11.50;99.90;;;;;;5059710;28;20045;-90
2023/10/29 05:38:57;;;;;;;10.68;5.78;;;12.00;99.90;;;;;;5059559;28;20095;-91
2023/10/29 05:41:23;;;;;;;9.88;9.05;;;11.50;99.90;;;;;;5069347;28;20040;-91
2023/10/29 05:43:49;;;;;;;7.35;5.40;;;11.30;99.90;;;;;;5058340;28;20040;-91
2023/10/29 05:46:16;;;;;;;7.22;5.47;;;11.80;99.90;;;;;;5057268;28;20048;-90
2023/10/29 05:48:42;;;;;;;10.57;9.70;;;12.20;99.90;;;;;;5058150;28;20047;-90
2023/10/29 05:51:12;;;;;;;12.52;8.63;;;11.40;99.90;;;;;;5056689;28;20045;-90
2023/10/29 05:53:39;;;;;;;11.15;9.60;;;11.50;99.90;;;;;;5073311;28;20090;-91
2023/10/29 05:56:05;;;;;;;8.57;7.28;;;11.90;99.90;;;;;;5073775;28;20551;-90
2023/10/29 05:58:31;;;;;;;21.55;10.88;;;11.40;99.90;;;;;;5067096;28;20036;-91
2023/10/29 06:00:57;;;;;;;12.18;9.40;;;11.40;99.90;;;;;;5057020;28;20102;-90
2023/10/29 06:03:24;;;;;;;8.63;7.65;;;12.10;99.90;;;;;;5057824;28;20032;-90
2023/10/29 06:05:51;;;;;;;10.13;9.13;;;11.40;99.90;;;;;;5056601;28;20040;-90
2023/10/29 06:08:17;;;;;;;10.50;9.15;;;11.40;99.90;;;;;;5058351;28;20051;-90
2023/10/29 06:10:43;;;;;;;7.22;6.53;;;11.50;99.90;;;;;;5074098;28;20040;-90
2023/10/29 06:13:09;;;;;;;10.77;9.35;;;12.00;99.90;;;;;;5074080;28;20047;-90
2023/10/29 06:15:35;;;;;;;11.10;9.93;;;12.30;99.90;;;;;;5079140;28;20100;-89
2023/10/29 06:18:04;;;;;;;11.50;10.57;;;11.40;99.90;;;;;;5088397;28;20064;-88
2023/10/29 06:20:30;;;;;;;10.43;8.95;;;11.40;99.90;;;;;;5073718;28;20047;-89
2023/10/29 06:22:55;;;;;;;10.50;9.65;;;12.40;99.90;;;;;;5072213;28;20069;-89
2023/10/29 06:25:21;;;;;;;8.65;7.40;;;11.60;99.90;;;;;;5074968;28;20080;-88
2023/10/29 06:27:47;;;;;;;8.65;7.80;;;11.40;99.90;;;;;;5074917;28;20044;-89
2023/10/29 06:30:13;;;;;;;8.30;7.32;;;11.50;99.90;;;;;;5074596;28;20096;-89
2023/10/29 06:32:39;;;;;;;11.93;10.80;;;10.80;99.90;;;;;;5074593;28;20123;-88
2023/10/29 06:35:06;;;;;;;11.55;7.93;;;11.90;99.90;;;;;;5074146;28;20056;-89
2023/10/29 06:37:32;;;;;;;9.35;8.40;;;11.60;99.90;;;;;;5072809;28;20071;-88
2023/10/29 06:39:58;;;;;;;10.43;5.43;;;11.60;99.90;;;;;;5074261;28;20036;-89
2023/10/29 06:42:24;;;;;;;10.95;8.23;;;11.60;99.90;;;;;;5074738;28;20045;-89
2023/10/29 06:44:49;;;;;;;6.05;5.45;;;11.60;99.90;;;;;;5075142;28;20048;-89
2023/10/29 06:47:15;;;;;;;10.07;5.78;;;11.70;99.90;;;;;;5075185;28;20074;-90
2023/10/29 06:49:42;;;;;;;9.52;6.18;;;11.60;99.90;;;;;;5073871;28;20066;-89
2023/10/29 06:52:10;;;;;;;10.55;5.65;;;11.70;99.90;;;;;;5073124;28;20128;-87
2023/10/29 06:54:36;;;;;;;11.32;6.25;;;12.40;99.90;;;;;;5073472;28;20059;-89
2023/10/29 06:57:04;;;;;;;7.45;6.80;;;11.60;99.90;;;;;;5068073;28;20032;-87
2023/10/29 06:59:30;;;;;;;8.73;6.78;;;11.60;99.90;;;;;;5057295;28;20518;-89
2023/10/29 07:01:59;;;;;;;9.15;7.45;;;11.20;99.90;;;;;;5081468;28;20044;-88
2023/10/29 07:04:25;;;;;;;8.18;7.55;;;12.40;99.90;;;;;;5076331;28;20092;-87
2023/10/29 07:06:51;;;;;;;9.80;6.65;;;11.80;99.90;;;;;;5068613;28;20494;-88
2023/10/29 07:09:18;;;;;;;9.18;6.90;;;11.50;99.90;;;;;;5069692;28;20067;-88
2023/10/29 07:11:44;;;;;;;9.32;6.65;;;11.60;99.90;;;;;;5069899;28;20072;-87
2023/10/29 07:14:12;;;;;;;12.45;11.32;;;11.60;99.90;;;;;;5085767;28;20384;-88
2023/10/29 07:16:43;;;;;;;9.18;7.78;;;11.90;99.90;;;;;;5069311;28;20063;-87
2023/10/29 07:19:13;;;;;;;10.13;8.82;;;11.80;99.90;;;;;;5069150;28;20037;-87
2023/10/29 07:21:39;;;;;;;11.80;6.55;;;11.80;99.90;;;;;;5081506;28;20521;-88
2023/10/29 07:24:08;;;;;;;10.07;7.95;;;11.90;99.90;;;;;;5082925;28;20070;-87
2023/10/29 07:26:34;;;;;;;14.20;12.73;;;11.90;99.90;;;;;;5083282;28;20040;-87
2023/10/29 07:29:01;;;;;;;11.65;10.48;;;12.30;99.90;;;;;;5066508;28;20055;-86
2023/10/29 07:31:26;;;;;;;17.10;15.52;;;12.70;99.90;;;;;;5085793;28;20055;-88
2023/10/29 07:33:52;;;;;;;9.98;6.50;;;12.10;99.90;;;;;;5066982;28;20056;-87
2023/10/29 07:36:22;;;;;;;8.27;5.07;;;12.40;99.90;;;;;;5084788;28;20080;-87
2023/10/29 07:38:48;;;;;;;11.68;8.85;;;12.80;99.90;;;;;;5089426;28;20272;-87
2023/10/29 07:41:21;;;;;;;12.23;9.23;;;12.10;99.90;;;;;;5084709;28;20061;-86
2023/10/29 07:43:47;;;;;;;11.15;8.80;;;12.40;99.90;;;;;;5084059;28;20040;-87
2023/10/29 07:46:14;;;;;;;10.93;8.07;;;12.00;99.90;;;;;;5082946;28;20663;-86
2023/10/29 07:48:40;;;;;;;8.88;6.95;;;12.00;99.90;;;;;;5066457;28;20037;-86
2023/10/29 07:51:06;;;;;;;7.22;6.20;;;12.10;99.90;;;;;;5066570;28;20040;-87
2023/10/29 07:53:31;;;;;;;7.32;5.03;;;12.90;99.90;;;;;;5066038;28;20040;-86
2023/10/29 07:56:15;;;;;;;7.65;5.50;;;12.10;99.90;;;;;;5082726;28;20118;-87
2023/10/29 07:58:42;;;;;;;13.75;12.43;;;12.20;99.90;;;;;;5066887;28;20039;-86
2023/10/29 08:01:16;;;;;;;9.38;7.72;;;12.70;99.90;;;;;;5083237;28;20509;-86
2023/10/29 08:03:44;;;;;;;6.93;6.05;;;12.20;99.90;;;;;;5084334;28;20047;-87
2023/10/29 08:06:10;;;;;;;10.77;9.88;;;12.70;99.90;;;;;;5067840;28;20136;-87
2023/10/29 08:08:37;;;;;;;13.88;11.30;;;12.90;99.90;;;;;;5074882;28;20064;-91
2023/10/29 08:11:03;;;;;;;7.95;7.22;;;12.80;99.90;;;;;;5072617;28;20088;-87
2023/10/29 08:13:28;;;;;;;9.85;7.80;;;12.30;99.90;;;;;;5070389;28;20436;-87
2023/10/29 08:15:54;;;;;;;13.85;12.45;;;12.00;99.90;;;;;;5069012;28;20033;-85
2023/10/29 08:18:21;;;;;;;12.65;8.93;;;11.90;99.90;;;;;;5070984;28;20049;-88
2023/10/29 08:20:46;;;;;;;10.63;6.60;;;12.60;99.90;;;;;;5072131;28;20097;-83
2023/10/29 08:23:12;;;;;;;10.50;9.40;;;12.50;99.90;;;;;;5071689;28;20060;-85
2023/10/29 08:25:38;;;;;;;9.95;9.00;;;12.30;99.90;;;;;;5086857;28;20048;-85
2023/10/29 08:28:08;;;;;;;12.32;10.82;;;11.90;99.90;;;;;;5086755;28;20385;-87
2023/10/29 08:30:34;;;;;;;12.10;9.60;;;11.80;99.90;;;;;;5070413;28;20047;-87
2023/10/29 08:33:00;;;;;;;14.13;10.35;;;12.00;99.90;;;;;;5071831;28;20045;-87
2023/10/29 08:35:25;;;;;;;12.95;11.32;;;12.60;99.90;;;;;;5069282;28;20060;-87
2023/10/29 08:37:51;;;;;;;13.82;12.30;;;12.00;99.90;;;;;;5069700;28;20032;-86
2023/10/29 08:40:17;;;;;;;11.00;10.00;;;12.20;99.90;;;;;;5086892;28;20102;-85
2023/10/29 08:42:43;;;;;;;14.30;12.15;;;12.30;99.90;;;;;;5069955;28;20044;-87
2023/10/29 08:45:09;;;;;;;15.40;13.88;;;12.20;99.90;;;;;;5070359;28;20047;-87
2023/10/29 08:47:36;;;;;;;17.75;15.85;;;11.80;99.90;;;;;;5070650;28;20507;-86
2023/10/29 08:50:03;;;;;;;11.30;8.75;;;12.30;99.90;;;;;;5070722;28;20044;-87
2023/10/29 08:52:29;;;;;;;12.55;11.20;;;11.80;99.90;;;;;;5069785;28;20028;-85
2023/10/29 08:54:54;;;;;;;10.88;9.98;;;12.60;99.90;;;;;;5071099;28;20067;-87
2023/10/29 08:57:21;;;;;;;13.32;12.13;;;12.60;99.90;;;;;;5086823;28;20048;-84
2023/10/29 08:59:47;;;;;;;18.50;16.85;;;11.90;99.90;;;;;;5071024;28;20047;-86
2023/10/29 09:02:13;;;;;;;11.35;10.00;;;11.90;99.90;;;;;;5070533;28;20054;-86
2023/10/29 09:04:39;;;;;;;17.83;16.33;;;12.10;99.90;;;;;;5070645;28;20103;-86
2023/10/29 09:07:05;;;;;;;10.32;8.77;;;11.90;99.90;;;;;;5070216;28;20040;-85
2023/10/29 09:09:31;;;;;;;15.88;11.07;;;12.80;99.90;;;;;;5070651;28;20040;-86
2023/10/29 09:11:58;;;;;;;14.13;12.95;;;12.90;99.90;;;;;;5071432;28;20033;-87
2023/10/29 09:14:23;;;;;;;13.13;11.20;;;13.00;99.90;;;;;;5087134;28;20470;-86
2023/10/29 09:16:49;;;;;;;9.65;8.73;;;12.40;99.90;;;;;;5087881;28;20055;-85
2023/10/29 09:19:15;;;;;;;9.68;7.72;;;12.50;99.90;;;;;;5086743;28;20322;-86
2023/10/29 09:21:41;;;;;;;9.35;8.52;;;12.60;99.90;;;;;;5084107;28;20529;-86
2023/10/29 09:24:07;;;;;;;14.75;13.27;;;12.60;99.90;;;;;;5070827;28;20105;-85
2023/10/29 09:26:34;;;;;;;17.85;11.75;;;12.60;99.90;;;;;;5070759;28;20202;-85
2023/10/29 09:29:03;;;;;;;16.30;10.70;;;12.60;99.90;;;;;;5069162;28;20045;-85
2023/10/29 09:31:29;;;;;;;26.58;24.50;;;12.90;99.90;;;;;;5069488;28;20036;-87
2023/10/29 09:33:55;;;;;;;11.38;10.13;;;13.30;99.90;;;;;;5068735;28;20044;-85
2023/10/29 09:36:21;;;;;;;12.55;11.02;;;12.60;99.90;;;;;;5068896;28;20112;-86
2023/10/29 09:38:47;;;;;;;15.57;14.05;;;12.90;99.90;;;;;;5086405;28;20023;-86
2023/10/29 09:41:18;;;;;;;16.63;15.10;;;12.40;99.90;;;;;;5071628;28;20036;-86
2023/10/29 09:43:46;;;;;;;14.55;13.23;;;13.10;99.90;;;;;;5070723;28;20044;-85
2023/10/29 09:46:12;;;;;;;16.20;10.18;;;12.50;99.90;;;;;;5069776;28;20036;-87
2023/10/29 09:48:39;;;;;;;16.23;15.00;;;12.60;99.90;;;;;;5071169;28;20048;-87
2023/10/29 09:51:06;;;;;;;13.63;12.38;;;12.60;99.90;;;;;;5070054;28;20071;-86
2023/10/29 09:53:34;;;;;;;14.60;11.35;;;13.10;99.90;;;;;;5070484;28;20040;-86
2023/10/29 09:56:00;;;;;;;14.98;11.50;;;12.90;99.90;;;;;;5071118;28;20037;-85
2023/10/29 09:58:27;;;;;;;15.88;14.40;;;12.90;99.90;;;;;;5070755;28;20093;-85
2023/10/29 10:00:53;;;;;;;13.52;10.75;;;13.20;99.90;;;;;;5070057;28;20289;-85
2023/10/29 10:03:18;;;;;;;13.52;12.23;;;13.10;99.90;;;;;;5087700;28;20138;-85
2023/10/29 10:05:46;;;;;;;20.65;12.75;;;13.40;99.90;;;;;;5070862;28;20145;-87
2023/10/29 10:08:12;;;;;;;21.05;19.33;;;13.30;99.90;;;;;;5070168;28;20042;-85
2023/10/29 10:10:46;;;;;;;13.48;11.95;;;13.30;99.90;;;;;;5070461;28;20033;-87
2023/10/29 10:13:14;;;;;;;17.45;13.00;;;13.80;99.90;;;;;;5070158;28;20033;-86
2023/10/29 10:15:41;;;;;;;11.80;10.23;;;13.60;99.90;;;;;;5071412;28;20479;-87
2023/10/29 10:18:07;;;;;;;13.07;8.55;;;13.90;99.90;;;;;;5071210;28;20049;-86
2023/10/29 10:20:34;;;;;;;14.88;12.40;;;14.00;99.90;;;;;;5070473;28;20054;-86
2023/10/29 10:23:05;;;;;;;14.18;8.77;;;13.60;99.90;;;;;;5069492;28;20076;-85
2023/10/29 10:25:32;;;;;;;12.38;11.15;;;13.60;99.90;;;;;;5087063;28;20062;-86
2023/10/29 10:27:59;;;;;;;15.13;12.73;;;13.60;99.90;;;;;;5069931;28;20041;-87
2023/10/29 10:30:26;;;;;;;19.63;13.75;;;14.30;99.90;;;;;;5085344;28;20051;-85
2023/10/29 10:32:52;;;;;;;14.80;11.23;;;13.60;99.90;;;;;;5068614;28;20036;-87
2023/10/29 10:35:18;;;;;;;18.42;17.05;;;13.50;99.90;;;;;;5069260;28;20071;-86
2023/10/29 10:37:54;;;;;;;13.82;12.50;;;13.40;99.90;;;;;;5069796;28;20064;-86
2023/10/29 10:40:26;;;;;;;14.45;11.88;;;13.50;99.90;;;;;;5068745;28;20037;-85
2023/10/29 10:42:58;;;;;;;11.77;9.50;;;13.50;99.90;;;;;;5086885;28;20044;-85
2023/10/29 10:45:26;;;;;;;16.90;12.63;;;13.50;99.90;;;;;;5069465;28;20032;-86
2023/10/29 10:47:56;;;;;;;16.85;9.75;;;13.50;99.90;;;;;;5086318;28;20066;-85
2023/10/29 10:50:25;;;;;;;13.45;12.32;;;13.40;99.90;;;;;;5072430;28;20058;-87
2023/10/29 10:52:52;;;;;;;12.60;9.93;;;13.40;99.90;;;;;;5069325;28;20041;-86
2023/10/29 10:55:18;;;;;;;16.50;13.23;;;14.00;99.90;;;;;;5068957;28;20040;-85
2023/10/29 10:57:47;;;;;;;14.95;10.18;;;13.60;99.90;;;;;;5068870;28;20082;-87
2023/10/29 11:00:14;;;;;;;18.25;13.73;;;13.50;99.90;;;;;;5068695;28;20048;-87
2023/10/29 11:02:40;;;;;;;16.05;14.07;;;13.60;99.90;;;;;;5068565;28;20037;-86
2023/10/29 11:05:09;;;;;;;13.23;11.05;;;13.60;99.90;;;;;;5085619;28;20497;-85
2023/10/29 11:07:37;;;;;;;13.52;11.32;;;14.00;99.90;;;;;;5069658;28;20041;-87
2023/10/29 11:10:03;;;;;;;16.77;9.52;;;13.70;99.90;;;;;;5068835;28;20092;-86
2023/10/29 11:12:38;;;;;;;14.07;12.73;;;13.70;99.90;;;;;;5068523;28;20044;-86
2023/10/29 11:15:21;;;;;;;14.35;12.02;;;14.10;99.90;;;;;;5086006;28;20055;-87
2023/10/29 11:17:51;;;;;;;20.20;14.23;;;13.60;99.90;;;;;;5069388;28;20076;-85
2023/10/29 11:20:39;;;;;;;17.25;15.63;;;13.60;99.90;;;;;;5068470;28;20075;-87
2023/10/29 11:23:16;;;;;;;15.05;11.90;;;13.40;99.90;;;;;;5049059;28;20098;-86
2023/10/29 11:25:42;;;;;;;17.42;14.20;;;13.80;99.90;;;;;;5048857;28;20052;-87
2023/10/29 11:28:23;;;;;;;16.90;11.05;;;13.80;99.90;;;;;;5048698;28;20266;-85
2023/10/29 11:31:15;;;;;;;15.25;13.40;;;14.00;99.90;;;;;;5054060;28;20036;-86
2023/10/29 11:33:44;;;;;;;21.20;13.00;;;13.90;99.90;;;;;;5068055;28;20295;-85
2023/10/29 11:36:32;;;;;;;14.45;8.57;;;13.90;99.90;;;;;;5084613;28;20125;-85
2023/10/29 11:39:17;;;;;;;15.15;13.07;;;14.00;99.90;;;;;;5067308;28;20531;-85
2023/10/29 11:41:44;;;;;;;18.80;17.00;;;14.10;99.90;;;;;;5085241;28;20051;-87
2023/10/29 11:44:27;;;;;;;16.75;11.13;;;14.00;99.90;;;;;;5069163;28;20051;-86
2023/10/29 11:46:59;;;;;;;14.60;9.87;;;14.00;99.90;;;;;;5067563;28;20132;-86
2023/10/29 11:49:26;;;;;;;20.40;17.40;;;13.90;99.90;;;;;;5068151;28;20319;-86
2023/10/29 11:52:02;;;;;;;15.85;14.38;;;13.90;99.90;;;;;;5068612;28;20208;-86
2023/10/29 11:54:29;;;;;;;21.70;17.55;;;13.90;99.90;;;;;;5089277;28;20627;-86
2023/10/29 11:56:57;;;;;;;17.02;12.85;;;14.40;99.90;;;;;;5072725;28;20044;-85
2023/10/29 11:59:23;;;;;;;13.38;11.73;;;14.00;99.90;;;;;;5073030;28;20437;-86
2023/10/29 12:01:50;;;;;;;12.13;9.90;;;14.20;99.90;;;;;;5072225;28;20040;-86
2023/10/29 12:04:16;;;;;;;22.55;15.88;;;14.00;99.90;;;;;;5072310;28;20048;-87
2023/10/29 12:06:48;;;;;;;15.57;12.23;;;14.10;99.90;;;;;;5072229;28;20055;-86
2023/10/29 12:09:22;;;;;;;18.95;13.70;;;14.00;99.90;;;;;;5062571;28;20040;-86
2023/10/29 12:11:52;;;;;;;17.52;15.18;;;14.10;99.90;;;;;;5071294;28;20036;-87
2023/10/29 12:14:43;;;;;;;14.52;9.65;;;14.10;99.90;;;;;;5054301;28;20119;-87
2023/10/29 12:17:09;;;;;;;16.15;12.95;;;14.10;99.90;;;;;;5034284;28;20044;-86
2023/10/29 12:19:36;;;;;;;16.08;12.60;;;14.20;99.90;;;;;;5050785;28;20084;-87
2023/10/29 12:22:11;;;;;;;13.10;10.75;;;14.20;99.90;;;;;;5050679;28;20048;-87
2023/10/29 12:24:37;;;;;;;17.42;13.73;;;14.30;99.90;;;;;;5050351;28;20099;-87
2023/10/29 12:27:03;;;;;;;14.93;7.85;;;14.30;99.90;;;;;;5050336;28;20041;-87
2023/10/29 12:29:28;;;;;;;15.32;10.18;;;14.30;99.90;;;;;;5051287;28;20276;-87
2023/10/29 12:31:54;;;;;;;18.40;9.80;;;14.30;99.90;;;;;;5070020;28;20310;-86